sensor_id;sensor_type;location;lat;lon;timestamp;temperature;humidity
10660;DHT22;5378;53.206;13.316;2023-06-10T00:02:04;14.40;99.90
10660;DHT22;5378;53.206;13.316;2023-06-10T00:04:52;14.50;99.90
10660;DHT22;5378;53.206;13.316;2023-06-10T00:07:41;14.50;99.90
10660;DHT22;5378;53.206;13.316;2023-06-10T00:10:27;14.40;99.90
10660;DHT22;5378;53.206;13.316;2023-06-10T00:13:15;14.50;99.90
10660;DHT22;5378;53.206;13.316;2023-06-10T00:16:03;14.40;99.90
10660;DHT22;5378;53.206;13.316;2023-06-10T00:18:50;14.40;99.90
10660;DHT22;5378;53.206;13.316;2023-06-10T00:21:38;14.50;99.90
10660;DHT22;5378;53.206;13.316;2023-06-10T00:24:27;14.50;99.90
10660;DHT22;5378;53.206;13.316;2023-06-10T00:27:15;14.60;99.90
10660;DHT22;5378;53.206;13.316;2023-06-10T00:30:02;14.60;99.90
10660;DHT22;5378;53.206;13.316;2023-06-10T00:32:52;14.50;99.90
10660;DHT22;5378;53.206;13.316;2023-06-10T00:35:39;14.60;99.90
10660;DHT22;5378;53.206;13.316;2023-06-10T00:38:26;14.70;99.90
10660;DHT22;5378;53.206;13.316;2023-06-10T00:41:14;14.80;99.90
10660;DHT22;5378;53.206;13.316;2023-06-10T00:44:03;14.80;99.90
10660;DHT22;5378;53.206;13.316;2023-06-10T00:46:50;14.80;99.90
10660;DHT22;5378;53.206;13.316;2023-06-10T00:49:40;14.80;99.90
10660;DHT22;5378;53.206;13.316;2023-06-10T00:52:28;14.70;99.90
10660;DHT22;5378;53.206;13.316;2023-06-10T00:55:16;14.80;99.90
10660;DHT22;5378;53.206;13.316;2023-06-10T00:58:05;14.90;99.90
10660;DHT22;5378;53.206;13.316;2023-06-10T01:00:52;14.80;99.90
10660;DHT22;5378;53.206;13.316;2023-06-10T01:03:39;14.80;99.90
10660;DHT22;5378;53.206;13.316;2023-06-10T01:06:31;14.80;99.90
10660;DHT22;5378;53.206;13.316;2023-06-10T01:09:24;14.80;99.90
10660;DHT22;5378;53.206;13.316;2023-06-10T01:12:19;14.70;99.90
10660;DHT22;5378;53.206;13.316;2023-06-10T01:15:08;14.80;99.90
10660;DHT22;5378;53.206;13.316;2023-06-10T01:17:59;14.80;99.90
10660;DHT22;5378;53.206;13.316;2023-06-10T01:20:49;14.80;99.90
10660;DHT22;5378;53.206;13.316;2023-06-10T01:23:39;14.90;99.90
10660;DHT22;5378;53.206;13.316;2023-06-10T01:26:30;14.80;99.90
10660;DHT22;5378;53.206;13.316;2023-06-10T01:29:21;14.80;99.90
10660;DHT22;5378;53.206;13.316;2023-06-10T01:32:17;14.80;99.90
10660;DHT22;5378;53.206;13.316;2023-06-10T01:35:06;14.70;99.90
10660;DHT22;5378;53.206;13.316;2023-06-10T01:37:57;14.80;99.90
10660;DHT22;5378;53.206;13.316;2023-06-10T01:40:47;14.80;99.90
10660;DHT22;5378;53.206;13.316;2023-06-10T01:43:37;14.80;99.90
10660;DHT22;5378;53.206;13.316;2023-06-10T01:46:25;14.70;99.90
10660;DHT22;5378;53.206;13.316;2023-06-10T01:49:12;14.70;99.90
10660;DHT22;5378;53.206;13.316;2023-06-10T01:52:02;14.80;99.90
10660;DHT22;5378;53.206;13.316;2023-06-10T01:54:51;14.80;99.90
10660;DHT22;5378;53.206;13.316;2023-06-10T01:57:40;14.90;99.90
10660;DHT22;5378;53.206;13.316;2023-06-10T02:00:27;14.80;99.90
10660;DHT22;5378;53.206;13.316;2023-06-10T02:03:13;14.80;99.90
10660;DHT22;5378;53.206;13.316;2023-06-10T02:06:01;14.70;99.90
10660;DHT22;5378;53.206;13.316;2023-06-10T02:08:48;14.70;99.90
10660;DHT22;5378;53.206;13.316;2023-06-10T02:11:35;14.70;99.90
10660;DHT22;5378;53.206;13.316;2023-06-10T02:14:24;14.80;99.90
10660;DHT22;5378;53.206;13.316;2023-06-10T02:17:11;14.90;99.90
10660;DHT22;5378;53.206;13.316;2023-06-10T02:20:00;14.80;99.90
10660;DHT22;5378;53.206;13.316;2023-06-10T02:22:52;14.80;99.90
10660;DHT22;5378;53.206;13.316;2023-06-10T02:25:40;14.80;99.90
10660;DHT22;5378;53.206;13.316;2023-06-10T02:28:27;14.80;99.90
10660;DHT22;5378;53.206;13.316;2023-06-10T02:31:17;14.80;99.90
10660;DHT22;5378;53.206;13.316;2023-06-10T02:34:05;14.90;99.90
10660;DHT22;5378;53.206;13.316;2023-06-10T02:36:53;14.80;99.90
10660;DHT22;5378;53.206;13.316;2023-06-10T02:39:43;14.80;99.90
10660;DHT22;5378;53.206;13.316;2023-06-10T02:42:30;14.70;99.90
10660;DHT22;5378;53.206;13.316;2023-06-10T02:45:18;14.70;99.90
10660;DHT22;5378;53.206;13.316;2023-06-10T02:48:07;14.70;99.90
10660;DHT22;5378;53.206;13.316;2023-06-10T02:50:55;14.70;99.90
10660;DHT22;5378;53.206;13.316;2023-06-10T02:53:49;14.70;99.90
10660;DHT22;5378;53.206;13.316;2023-06-10T02:56:37;14.70;99.90
10660;DHT22;5378;53.206;13.316;2023-06-10T02:59:33;14.70;99.90
10660;DHT22;5378;53.206;13.316;2023-06-10T03:02:21;14.70;99.90
10660;DHT22;5378;53.206;13.316;2023-06-10T03:05:11;14.70;99.90
10660;DHT22;5378;53.206;13.316;2023-06-10T03:08:03;14.70;99.90
10660;DHT22;5378;53.206;13.316;2023-06-10T03:10:52;15.00;99.90
10660;DHT22;5378;53.206;13.316;2023-06-10T03:13:39;15.20;99.90
10660;DHT22;5378;53.206;13.316;2023-06-10T03:16:30;15.40;99.90
10660;DHT22;5378;53.206;13.316;2023-06-10T03:19:18;15.60;99.90
10660;DHT22;5378;53.206;13.316;2023-06-10T03:22:11;15.80;99.90
10660;DHT22;5378;53.206;13.316;2023-06-10T03:25:27;16.10;99.90
10660;DHT22;5378;53.206;13.316;2023-06-10T03:28:16;16.40;99.90
10660;DHT22;5378;53.206;13.316;2023-06-10T03:31:04;16.60;99.90
10660;DHT22;5378;53.206;13.316;2023-06-10T03:33:51;16.90;99.90
10660;DHT22;5378;53.206;13.316;2023-06-10T03:36:39;17.40;99.90
10660;DHT22;5378;53.206;13.316;2023-06-10T03:39:30;17.30;99.90
10660;DHT22;5378;53.206;13.316;2023-06-10T03:42:18;17.20;99.90
10660;DHT22;5378;53.206;13.316;2023-06-10T03:45:06;17.20;99.90
10660;DHT22;5378;53.206;13.316;2023-06-10T03:47:55;17.50;99.90
10660;DHT22;5378;53.206;13.316;2023-06-10T03:50:49;18.00;99.90
10660;DHT22;5378;53.206;13.316;2023-06-10T03:53:37;18.30;99.90
10660;DHT22;5378;53.206;13.316;2023-06-10T03:56:25;18.80;99.90
10660;DHT22;5378;53.206;13.316;2023-06-10T03:59:14;19.40;99.90
10660;DHT22;5378;53.206;13.316;2023-06-10T04:02:01;19.60;99.90
10660;DHT22;5378;53.206;13.316;2023-06-10T04:04:51;19.90;99.90
10660;DHT22;5378;53.206;13.316;2023-06-10T04:07:38;20.10;99.90
10660;DHT22;5378;53.206;13.316;2023-06-10T04:10:26;20.30;99.90
10660;DHT22;5378;53.206;13.316;2023-06-10T04:13:15;20.50;99.90
10660;DHT22;5378;53.206;13.316;2023-06-10T04:16:11;20.70;99.90
10660;DHT22;5378;53.206;13.316;2023-06-10T04:18:59;20.70;99.90
10660;DHT22;5378;53.206;13.316;2023-06-10T04:21:47;20.20;99.90
10660;DHT22;5378;53.206;13.316;2023-06-10T04:24:34;19.70;99.90
10660;DHT22;5378;53.206;13.316;2023-06-10T04:27:22;19.30;99.90
10660;DHT22;5378;53.206;13.316;2023-06-10T04:30:12;19.80;99.90
10660;DHT22;5378;53.206;13.316;2023-06-10T04:33:00;20.50;99.90
10660;DHT22;5378;53.206;13.316;2023-06-10T04:35:48;20.90;99.90
10660;DHT22;5378;53.206;13.316;2023-06-10T04:38:36;21.10;99.90
10660;DHT22;5378;53.206;13.316;2023-06-10T04:41:24;21.10;99.90
10660;DHT22;5378;53.206;13.316;2023-06-10T04:44:13;20.90;99.90
10660;DHT22;5378;53.206;13.316;2023-06-10T04:47:02;20.50;99.90
10660;DHT22;5378;53.206;13.316;2023-06-10T04:49:50;20.10;99.90
10660;DHT22;5378;53.206;13.316;2023-06-10T04:52:37;20.00;99.90
10660;DHT22;5378;53.206;13.316;2023-06-10T04:55:24;19.70;99.90
10660;DHT22;5378;53.206;13.316;2023-06-10T04:58:12;18.90;99.90
10660;DHT22;5378;53.206;13.316;2023-06-10T05:00:59;18.30;99.90
10660;DHT22;5378;53.206;13.316;2023-06-10T05:03:49;17.90;99.90
10660;DHT22;5378;53.206;13.316;2023-06-10T05:06:36;17.60;99.90
10660;DHT22;5378;53.206;13.316;2023-06-10T05:09:23;17.60;99.90
10660;DHT22;5378;53.206;13.316;2023-06-10T05:12:10;17.80;99.90
10660;DHT22;5378;53.206;13.316;2023-06-10T05:14:56;17.80;99.90
10660;DHT22;5378;53.206;13.316;2023-06-10T05:17:43;18.70;99.90
10660;DHT22;5378;53.206;13.316;2023-06-10T05:20:32;20.10;99.90
10660;DHT22;5378;53.206;13.316;2023-06-10T05:23:19;21.50;99.90
10660;DHT22;5378;53.206;13.316;2023-06-10T05:26:06;22.70;99.90
10660;DHT22;5378;53.206;13.316;2023-06-10T05:28:54;23.50;99.90
10660;DHT22;5378;53.206;13.316;2023-06-10T05:31:41;23.80;99.90
10660;DHT22;5378;53.206;13.316;2023-06-10T05:34:28;23.50;99.90
10660;DHT22;5378;53.206;13.316;2023-06-10T05:37:16;22.60;99.90
10660;DHT22;5378;53.206;13.316;2023-06-10T05:40:05;21.30;99.90
10660;DHT22;5378;53.206;13.316;2023-06-10T05:42:52;20.30;99.90
10660;DHT22;5378;53.206;13.316;2023-06-10T05:45:40;19.90;99.90
10660;DHT22;5378;53.206;13.316;2023-06-10T05:48:26;20.50;99.90
10660;DHT22;5378;53.206;13.316;2023-06-10T05:51:14;22.30;99.90
10660;DHT22;5378;53.206;13.316;2023-06-10T05:54:02;23.70;99.90
10660;DHT22;5378;53.206;13.316;2023-06-10T05:56:49;22.70;99.90
10660;DHT22;5378;53.206;13.316;2023-06-10T05:59:36;22.00;99.90
10660;DHT22;5378;53.206;13.316;2023-06-10T06:02:23;21.60;99.90
10660;DHT22;5378;53.206;13.316;2023-06-10T06:05:11;21.40;99.90
10660;DHT22;5378;53.206;13.316;2023-06-10T06:07:58;21.20;99.90
10660;DHT22;5378;53.206;13.316;2023-06-10T06:10:46;21.10;99.90
10660;DHT22;5378;53.206;13.316;2023-06-10T06:13:34;20.70;99.90
10660;DHT22;5378;53.206;13.316;2023-06-10T06:16:21;20.80;99.90
10660;DHT22;5378;53.206;13.316;2023-06-10T06:19:08;21.70;99.90
10660;DHT22;5378;53.206;13.316;2023-06-10T06:21:57;22.90;99.90
10660;DHT22;5378;53.206;13.316;2023-06-10T06:24:44;22.60;99.90
10660;DHT22;5378;53.206;13.316;2023-06-10T06:27:32;22.00;99.90
10660;DHT22;5378;53.206;13.316;2023-06-10T06:30:19;21.70;99.90
10660;DHT22;5378;53.206;13.316;2023-06-10T06:33:06;21.60;99.90
10660;DHT22;5378;53.206;13.316;2023-06-10T06:35:53;21.90;99.90
10660;DHT22;5378;53.206;13.316;2023-06-10T06:38:40;22.90;99.90
10660;DHT22;5378;53.206;13.316;2023-06-10T06:41:27;24.10;99.90
10660;DHT22;5378;53.206;13.316;2023-06-10T06:44:16;25.20;99.90
10660;DHT22;5378;53.206;13.316;2023-06-10T06:47:09;25.90;99.90
10660;DHT22;5378;53.206;13.316;2023-06-10T06:49:56;27.00;99.90
10660;DHT22;5378;53.206;13.316;2023-06-10T06:52:43;26.80;99.90
10660;DHT22;5378;53.206;13.316;2023-06-10T06:55:30;27.30;99.90
10660;DHT22;5378;53.206;13.316;2023-06-10T06:58:17;27.50;99.90
10660;DHT22;5378;53.206;13.316;2023-06-10T07:01:05;27.60;99.90
10660;DHT22;5378;53.206;13.316;2023-06-10T07:03:52;28.10;99.90
10660;DHT22;5378;53.206;13.316;2023-06-10T07:06:40;28.20;99.30
10660;DHT22;5378;53.206;13.316;2023-06-10T07:09:27;28.40;99.60
10660;DHT22;5378;53.206;13.316;2023-06-10T07:12:14;28.40;99.20
10660;DHT22;5378;53.206;13.316;2023-06-10T07:15:02;28.60;98.30
10660;DHT22;5378;53.206;13.316;2023-06-10T07:17:50;28.50;97.50
10660;DHT22;5378;53.206;13.316;2023-06-10T07:20:37;28.20;98.60
10660;DHT22;5378;53.206;13.316;2023-06-10T07:23:24;28.70;97.70
10660;DHT22;5378;53.206;13.316;2023-06-10T07:26:12;28.60;97.20
10660;DHT22;5378;53.206;13.316;2023-06-10T07:28:59;28.50;97.00
10660;DHT22;5378;53.206;13.316;2023-06-10T07:31:46;28.90;96.70
10660;DHT22;5378;53.206;13.316;2023-06-10T07:34:35;28.70;96.80
10660;DHT22;5378;53.206;13.316;2023-06-10T07:37:22;28.40;96.60
10660;DHT22;5378;53.206;13.316;2023-06-10T07:40:09;28.20;96.50
10660;DHT22;5378;53.206;13.316;2023-06-10T07:42:56;26.60;98.50
10660;DHT22;5378;53.206;13.316;2023-06-10T07:45:44;25.50;99.90
10660;DHT22;5378;53.206;13.316;2023-06-10T07:48:31;24.50;99.90
10660;DHT22;5378;53.206;13.316;2023-06-10T07:51:20;23.50;99.90
10660;DHT22;5378;53.206;13.316;2023-06-10T07:54:08;22.80;99.90
10660;DHT22;5378;53.206;13.316;2023-06-10T07:56:55;22.40;99.90
10660;DHT22;5378;53.206;13.316;2023-06-10T07:59:41;22.40;99.90
10660;DHT22;5378;53.206;13.316;2023-06-10T08:02:30;22.50;99.90
10660;DHT22;5378;53.206;13.316;2023-06-10T08:05:17;23.40;99.90
10660;DHT22;5378;53.206;13.316;2023-06-10T08:08:06;24.90;99.90
10660;DHT22;5378;53.206;13.316;2023-06-10T08:10:53;26.80;99.90
10660;DHT22;5378;53.206;13.316;2023-06-10T08:13:40;28.90;99.90
10660;DHT22;5378;53.206;13.316;2023-06-10T08:16:28;30.30;97.00
10660;DHT22;5378;53.206;13.316;2023-06-10T08:19:15;31.20;94.30
10660;DHT22;5378;53.206;13.316;2023-06-10T08:22:03;31.60;93.20
10660;DHT22;5378;53.206;13.316;2023-06-10T08:24:51;31.70;91.80
10660;DHT22;5378;53.206;13.316;2023-06-10T08:27:39;30.80;92.00
10660;DHT22;5378;53.206;13.316;2023-06-10T08:30:26;29.90;93.20
10660;DHT22;5378;53.206;13.316;2023-06-10T08:33:13;28.90;93.70
10660;DHT22;5378;53.206;13.316;2023-06-10T08:36:01;28.90;95.10
10660;DHT22;5378;53.206;13.316;2023-06-10T08:38:48;29.70;95.10
10660;DHT22;5378;53.206;13.316;2023-06-10T08:41:40;29.90;94.70
10660;DHT22;5378;53.206;13.316;2023-06-10T08:44:30;30.50;93.90
10660;DHT22;5378;53.206;13.316;2023-06-10T08:47:19;29.70;93.50
10660;DHT22;5378;53.206;13.316;2023-06-10T08:50:10;28.60;94.90
10660;DHT22;5378;53.206;13.316;2023-06-10T08:52:58;27.40;96.00
10660;DHT22;5378;53.206;13.316;2023-06-10T08:55:49;26.50;98.00
10660;DHT22;5378;53.206;13.316;2023-06-10T08:58:39;27.20;97.80
10660;DHT22;5378;53.206;13.316;2023-06-10T09:01:28;28.10;97.50
10660;DHT22;5378;53.206;13.316;2023-06-10T09:04:15;28.40;97.20
10660;DHT22;5378;53.206;13.316;2023-06-10T09:07:05;28.90;96.90
10660;DHT22;5378;53.206;13.316;2023-06-10T09:09:53;29.40;98.10
10660;DHT22;5378;53.206;13.316;2023-06-10T09:12:41;29.60;96.70
10660;DHT22;5378;53.206;13.316;2023-06-10T09:15:30;29.30;95.90
10660;DHT22;5378;53.206;13.316;2023-06-10T09:18:17;28.70;97.30
10660;DHT22;5378;53.206;13.316;2023-06-10T09:21:04;28.20;99.40
10660;DHT22;5378;53.206;13.316;2023-06-10T09:23:51;27.90;99.70
10660;DHT22;5378;53.206;13.316;2023-06-10T09:26:38;27.70;99.50
10660;DHT22;5378;53.206;13.316;2023-06-10T09:29:25;27.60;99.90
10660;DHT22;5378;53.206;13.316;2023-06-10T09:32:14;27.70;99.90
10660;DHT22;5378;53.206;13.316;2023-06-10T09:35:09;28.00;99.90
10660;DHT22;5378;53.206;13.316;2023-06-10T09:37:57;28.20;99.90
10660;DHT22;5378;53.206;13.316;2023-06-10T09:40:51;28.10;99.90
10660;DHT22;5378;53.206;13.316;2023-06-10T09:43:40;27.90;99.90
10660;DHT22;5378;53.206;13.316;2023-06-10T09:46:31;28.00;99.90
10660;DHT22;5378;53.206;13.316;2023-06-10T09:49:20;28.10;98.80
10660;DHT22;5378;53.206;13.316;2023-06-10T09:52:07;27.70;98.90
10660;DHT22;5378;53.206;13.316;2023-06-10T09:54:59;27.40;98.40
10660;DHT22;5378;53.206;13.316;2023-06-10T09:57:49;27.10;98.80
10660;DHT22;5378;53.206;13.316;2023-06-10T10:00:36;26.50;99.10
10660;DHT22;5378;53.206;13.316;2023-06-10T10:03:23;26.10;99.90
10660;DHT22;5378;53.206;13.316;2023-06-10T10:06:12;25.50;99.90
10660;DHT22;5378;53.206;13.316;2023-06-10T10:08:59;25.20;99.90
10660;DHT22;5378;53.206;13.316;2023-06-10T10:11:49;24.80;99.90
10660;DHT22;5378;53.206;13.316;2023-06-10T10:14:39;24.50;99.90
10660;DHT22;5378;53.206;13.316;2023-06-10T10:17:30;24.60;99.90
10660;DHT22;5378;53.206;13.316;2023-06-10T10:20:22;24.50;99.90
10660;DHT22;5378;53.206;13.316;2023-06-10T10:23:14;24.60;99.90
10660;DHT22;5378;53.206;13.316;2023-06-10T10:26:07;24.60;99.90
10660;DHT22;5378;53.206;13.316;2023-06-10T10:29:05;24.50;99.90
10660;DHT22;5378;53.206;13.316;2023-06-10T10:31:56;24.40;99.90
10660;DHT22;5378;53.206;13.316;2023-06-10T10:34:50;24.50;99.90
10660;DHT22;5378;53.206;13.316;2023-06-10T10:37:40;24.60;99.90
10660;DHT22;5378;53.206;13.316;2023-06-10T10:40:29;24.80;99.90
10660;DHT22;5378;53.206;13.316;2023-06-10T10:43:19;25.00;99.90
10660;DHT22;5378;53.206;13.316;2023-06-10T10:46:11;25.20;99.90
10660;DHT22;5378;53.206;13.316;2023-06-10T10:48:59;25.30;99.90
10660;DHT22;5378;53.206;13.316;2023-06-10T10:51:55;25.40;99.90
10660;DHT22;5378;53.206;13.316;2023-06-10T10:54:45;25.80;99.90
10660;DHT22;5378;53.206;13.316;2023-06-10T10:57:38;26.20;99.90
10660;DHT22;5378;53.206;13.316;2023-06-10T11:00:30;26.60;99.90
10660;DHT22;5378;53.206;13.316;2023-06-10T11:03:18;26.70;99.90
10660;DHT22;5378;53.206;13.316;2023-06-10T11:06:12;27.10;99.90
10660;DHT22;5378;53.206;13.316;2023-06-10T11:09:00;26.50;99.90
10660;DHT22;5378;53.206;13.316;2023-06-10T11:11:50;26.20;99.90
10660;DHT22;5378;53.206;13.316;2023-06-10T11:14:53;26.00;99.90
10660;DHT22;5378;53.206;13.316;2023-06-10T11:18:09;25.90;99.90
10660;DHT22;5378;53.206;13.316;2023-06-10T11:21:01;25.80;99.90
10660;DHT22;5378;53.206;13.316;2023-06-10T11:23:50;25.90;99.90
10660;DHT22;5378;53.206;13.316;2023-06-10T11:26:44;25.90;99.90
10660;DHT22;5378;53.206;13.316;2023-06-10T11:29:31;26.00;99.90
10660;DHT22;5378;53.206;13.316;2023-06-10T11:32:19;25.90;99.90
10660;DHT22;5378;53.206;13.316;2023-06-10T11:35:07;26.10;99.90
10660;DHT22;5378;53.206;13.316;2023-06-10T11:37:55;26.30;99.80
10660;DHT22;5378;53.206;13.316;2023-06-10T11:40:46;26.40;99.90
10660;DHT22;5378;53.206;13.316;2023-06-10T11:43:34;26.30;99.90
10660;DHT22;5378;53.206;13.316;2023-06-10T11:46:21;26.40;99.90
10660;DHT22;5378;53.206;13.316;2023-06-10T11:49:10;26.50;99.90
10660;DHT22;5378;53.206;13.316;2023-06-10T11:51:58;26.40;99.90
10660;DHT22;5378;53.206;13.316;2023-06-10T11:54:53;26.30;99.90
10660;DHT22;5378;53.206;13.316;2023-06-10T11:57:41;26.20;99.90
10660;DHT22;5378;53.206;13.316;2023-06-10T12:00:28;26.10;99.90
10660;DHT22;5378;53.206;13.316;2023-06-10T12:03:15;25.80;99.90
10660;DHT22;5378;53.206;13.316;2023-06-10T12:06:06;26.00;99.90
10660;DHT22;5378;53.206;13.316;2023-06-10T12:08:54;26.30;99.70
10660;DHT22;5378;53.206;13.316;2023-06-10T12:11:45;26.10;99.80
10660;DHT22;5378;53.206;13.316;2023-06-10T12:14:51;26.10;99.20
10660;DHT22;5378;53.206;13.316;2023-06-10T12:17:39;26.10;99.60
10660;DHT22;5378;53.206;13.316;2023-06-10T12:20:28;26.30;99.00
10660;DHT22;5378;53.206;13.316;2023-06-10T12:23:17;26.40;99.10
10660;DHT22;5378;53.206;13.316;2023-06-10T12:26:06;26.10;99.20
10660;DHT22;5378;53.206;13.316;2023-06-10T12:28:53;26.20;99.30
10660;DHT22;5378;53.206;13.316;2023-06-10T12:31:59;26.40;99.50
10660;DHT22;5378;53.206;13.316;2023-06-10T12:34:46;26.60;99.90
10660;DHT22;5378;53.206;13.316;2023-06-10T12:37:33;26.70;99.40
10660;DHT22;5378;53.206;13.316;2023-06-10T12:40:27;26.70;98.30
10660;DHT22;5378;53.206;13.316;2023-06-10T12:43:19;26.80;98.80
10660;DHT22;5378;53.206;13.316;2023-06-10T12:46:10;26.90;98.50
10660;DHT22;5378;53.206;13.316;2023-06-10T12:48:57;26.80;97.60
10660;DHT22;5378;53.206;13.316;2023-06-10T12:51:44;26.50;98.50
10660;DHT22;5378;53.206;13.316;2023-06-10T12:54:31;26.60;97.80
10660;DHT22;5378;53.206;13.316;2023-06-10T12:57:20;26.70;96.60
10660;DHT22;5378;53.206;13.316;2023-06-10T13:00:08;26.80;97.00
10660;DHT22;5378;53.206;13.316;2023-06-10T13:03:00;26.80;95.70
10660;DHT22;5378;53.206;13.316;2023-06-10T13:05:47;26.90;95.90
10660;DHT22;5378;53.206;13.316;2023-06-10T13:08:34;27.00;94.90
10660;DHT22;5378;53.206;13.316;2023-06-10T13:11:22;27.10;94.40
10660;DHT22;5378;53.206;13.316;2023-06-10T13:14:13;27.20;94.90
10660;DHT22;5378;53.206;13.316;2023-06-10T13:17:00;27.40;95.00
10660;DHT22;5378;53.206;13.316;2023-06-10T13:19:47;27.50;94.20
10660;DHT22;5378;53.206;13.316;2023-06-10T13:22:34;27.60;95.10
10660;DHT22;5378;53.206;13.316;2023-06-10T13:25:22;27.60;95.10
10660;DHT22;5378;53.206;13.316;2023-06-10T13:28:09;27.70;94.50
10660;DHT22;5378;53.206;13.316;2023-06-10T13:30:58;27.70;93.50
10660;DHT22;5378;53.206;13.316;2023-06-10T13:33:45;27.70;93.50
10660;DHT22;5378;53.206;13.316;2023-06-10T13:36:33;27.50;93.60
10660;DHT22;5378;53.206;13.316;2023-06-10T13:39:20;27.40;93.10
10660;DHT22;5378;53.206;13.316;2023-06-10T13:42:07;27.40;93.50
10660;DHT22;5378;53.206;13.316;2023-06-10T13:44:54;27.40;94.00
10660;DHT22;5378;53.206;13.316;2023-06-10T13:47:43;27.60;94.50
10660;DHT22;5378;53.206;13.316;2023-06-10T13:50:30;27.80;92.00
10660;DHT22;5378;53.206;13.316;2023-06-10T13:53:17;27.90;91.70
10660;DHT22;5378;53.206;13.316;2023-06-10T13:56:04;27.70;92.00
10660;DHT22;5378;53.206;13.316;2023-06-10T13:58:51;27.80;92.70
10660;DHT22;5378;53.206;13.316;2023-06-10T14:01:39;27.70;91.90
10660;DHT22;5378;53.206;13.316;2023-06-10T14:04:27;27.60;96.30
10660;DHT22;5378;53.206;13.316;2023-06-10T14:07:15;27.10;96.60
10660;DHT22;5378;53.206;13.316;2023-06-10T14:10:03;27.00;97.60
10660;DHT22;5378;53.206;13.316;2023-06-10T14:12:51;27.10;98.20
10660;DHT22;5378;53.206;13.316;2023-06-10T14:15:38;27.10;97.70
10660;DHT22;5378;53.206;13.316;2023-06-10T14:18:24;27.10;97.90
10660;DHT22;5378;53.206;13.316;2023-06-10T14:21:13;27.00;98.00
10660;DHT22;5378;53.206;13.316;2023-06-10T14:24:00;26.80;98.10
10660;DHT22;5378;53.206;13.316;2023-06-10T14:26:48;26.90;98.40
10660;DHT22;5378;53.206;13.316;2023-06-10T14:29:35;27.00;98.40
10660;DHT22;5378;53.206;13.316;2023-06-10T14:32:22;27.00;98.40
10660;DHT22;5378;53.206;13.316;2023-06-10T14:35:09;26.80;98.70
10660;DHT22;5378;53.206;13.316;2023-06-10T14:37:57;26.80;98.40
10660;DHT22;5378;53.206;13.316;2023-06-10T14:40:44;26.90;98.20
10660;DHT22;5378;53.206;13.316;2023-06-10T14:43:31;26.90;97.20
10660;DHT22;5378;53.206;13.316;2023-06-10T14:46:19;26.90;98.00
10660;DHT22;5378;53.206;13.316;2023-06-10T14:49:07;26.90;98.10
10660;DHT22;5378;53.206;13.316;2023-06-10T14:51:54;26.90;98.30
10660;DHT22;5378;53.206;13.316;2023-06-10T14:54:43;26.80;98.40
10660;DHT22;5378;53.206;13.316;2023-06-10T14:57:29;26.80;98.80
10660;DHT22;5378;53.206;13.316;2023-06-10T15:00:18;26.90;98.70
10660;DHT22;5378;53.206;13.316;2023-06-10T15:03:08;26.80;97.50
10660;DHT22;5378;53.206;13.316;2023-06-10T15:05:55;26.80;98.80
10660;DHT22;5378;53.206;13.316;2023-06-10T15:08:42;26.80;93.30
10660;DHT22;5378;53.206;13.316;2023-06-10T15:11:30;26.80;94.80
10660;DHT22;5378;53.206;13.316;2023-06-10T15:14:17;26.90;93.60
10660;DHT22;5378;53.206;13.316;2023-06-10T15:17:04;26.90;93.60
10660;DHT22;5378;53.206;13.316;2023-06-10T15:19:51;26.80;92.30
10660;DHT22;5378;53.206;13.316;2023-06-10T15:22:39;26.80;93.80
10660;DHT22;5378;53.206;13.316;2023-06-10T15:25:26;26.80;93.00
10660;DHT22;5378;53.206;13.316;2023-06-10T15:28:17;26.70;91.80
10660;DHT22;5378;53.206;13.316;2023-06-10T15:31:03;26.70;92.20
10660;DHT22;5378;53.206;13.316;2023-06-10T15:33:51;26.70;92.00
10660;DHT22;5378;53.206;13.316;2023-06-10T15:36:38;26.80;93.00
10660;DHT22;5378;53.206;13.316;2023-06-10T15:39:25;26.80;95.20
10660;DHT22;5378;53.206;13.316;2023-06-10T15:42:13;26.80;96.60
10660;DHT22;5378;53.206;13.316;2023-06-10T15:45:01;26.90;96.90
10660;DHT22;5378;53.206;13.316;2023-06-10T15:47:49;26.60;97.30
10660;DHT22;5378;53.206;13.316;2023-06-10T15:50:36;26.50;97.00
10660;DHT22;5378;53.206;13.316;2023-06-10T15:53:23;26.30;96.60
10660;DHT22;5378;53.206;13.316;2023-06-10T15:56:10;26.20;96.50
10660;DHT22;5378;53.206;13.316;2023-06-10T15:58:57;26.10;97.50
10660;DHT22;5378;53.206;13.316;2023-06-10T16:01:45;26.10;96.60
10660;DHT22;5378;53.206;13.316;2023-06-10T16:04:33;26.10;96.00
10660;DHT22;5378;53.206;13.316;2023-06-10T16:07:20;26.10;95.50
10660;DHT22;5378;53.206;13.316;2023-06-10T16:10:07;26.10;95.10
10660;DHT22;5378;53.206;13.316;2023-06-10T16:12:55;26.10;94.30
10660;DHT22;5378;53.206;13.316;2023-06-10T16:15:42;26.10;94.30
10660;DHT22;5378;53.206;13.316;2023-06-10T16:18:31;26.10;92.20
10660;DHT22;5378;53.206;13.316;2023-06-10T16:21:18;26.10;93.30
10660;DHT22;5378;53.206;13.316;2023-06-10T16:24:05;26.00;91.50
10660;DHT22;5378;53.206;13.316;2023-06-10T16:26:53;26.00;91.00
10660;DHT22;5378;53.206;13.316;2023-06-10T16:29:40;25.90;91.00
10660;DHT22;5378;53.206;13.316;2023-06-10T16:32:27;25.80;90.60
10660;DHT22;5378;53.206;13.316;2023-06-10T16:35:16;25.70;91.60
10660;DHT22;5378;53.206;13.316;2023-06-10T16:38:03;25.70;91.40
10660;DHT22;5378;53.206;13.316;2023-06-10T16:40:50;25.50;90.50
10660;DHT22;5378;53.206;13.316;2023-06-10T16:43:37;25.50;91.40
10660;DHT22;5378;53.206;13.316;2023-06-10T16:46:24;25.60;91.40
10660;DHT22;5378;53.206;13.316;2023-06-10T16:49:11;25.60;91.30
10660;DHT22;5378;53.206;13.316;2023-06-10T16:52:00;25.50;91.60
10660;DHT22;5378;53.206;13.316;2023-06-10T16:54:47;25.50;90.40
10660;DHT22;5378;53.206;13.316;2023-06-10T16:57:35;25.40;90.80
10660;DHT22;5378;53.206;13.316;2023-06-10T17:00:22;25.40;91.00
10660;DHT22;5378;53.206;13.316;2023-06-10T17:03:09;25.50;91.40
10660;DHT22;5378;53.206;13.316;2023-06-10T17:05:57;25.50;91.40
10660;DHT22;5378;53.206;13.316;2023-06-10T17:08:45;25.50;93.00
10660;DHT22;5378;53.206;13.316;2023-06-10T17:11:33;25.40;93.90
10660;DHT22;5378;53.206;13.316;2023-06-10T17:14:20;25.30;94.90
10660;DHT22;5378;53.206;13.316;2023-06-10T17:17:09;25.20;95.40
10660;DHT22;5378;53.206;13.316;2023-06-10T17:19:56;25.10;95.80
10660;DHT22;5378;53.206;13.316;2023-06-10T17:22:43;24.90;95.80
10660;DHT22;5378;53.206;13.316;2023-06-10T17:25:32;24.70;95.90
10660;DHT22;5378;53.206;13.316;2023-06-10T17:28:21;24.50;95.70
10660;DHT22;5378;53.206;13.316;2023-06-10T17:31:08;24.30;95.80
10660;DHT22;5378;53.206;13.316;2023-06-10T17:33:55;24.20;95.70
10660;DHT22;5378;53.206;13.316;2023-06-10T17:36:43;24.10;96.10
10660;DHT22;5378;53.206;13.316;2023-06-10T17:39:30;24.10;95.30
10660;DHT22;5378;53.206;13.316;2023-06-10T17:42:18;24.00;96.30
10660;DHT22;5378;53.206;13.316;2023-06-10T17:45:06;23.90;95.30